Time;durP1;ratioP1;P1;durP2;ratioP2;P2;SDS_P1;SDS_P2;PMS_P1;PMS_P2;Temp;Humidity;BMP_temperature;BMP_pressure;BME280_temperature;BME280_humidity;BME280_pressure;Samples;Min_cycle;Max_cycle;Signal;HPM_P1;HPM_P2
2021/04/08 00:00:52;;;;;;;12.50;2.60;;;;;;;0.34;94.23;102265.53;5133308;27;20488;-62
2021/04/08 00:03:17;;;;;;;15.40;3.00;;;;;;;0.19;96.15;102256.69;5132864;27;20043;-62
2021/04/08 00:05:42;;;;;;;18.83;3.22;;;;;;;0.16;96.59;102266.84;5133832;27;20023;-62
2021/04/08 00:08:08;;;;;;;15.63;3.10;;;;;;;0.09;98.78;102256.84;5132767;27;20401;-62
2021/04/08 00:10:33;;;;;;;16.13;3.13;;;;;;;0.05;100.00;102254.84;5133891;27;20034;-62
2021/04/08 00:12:58;;;;;;;17.90;3.38;;;;;;;0.01;100.00;102258.91;5133771;27;20114;-62
2021/04/08 00:15:24;;;;;;;23.75;3.10;;;;;;;0.01;100.00;102263.22;5132852;27;20031;-62
2021/04/08 00:17:49;;;;;;;17.77;3.20;;;;;;;-0.03;100.00;102259.47;5132032;27;20068;-62
2021/04/08 00:20:19;;;;;;;18.08;3.10;;;;;;;-0.04;100.00;102261.19;5130263;27;20422;-63
2021/04/08 00:22:45;;;;;;;17.88;3.20;;;;;;;-0.03;100.00;102262.06;5133221;27;20202;-62
2021/04/08 00:25:13;;;;;;;18.27;3.30;;;;;;;0.02;100.00;102265.03;5133128;27;20047;-62
2021/04/08 00:27:38;;;;;;;18.70;3.45;;;;;;;0.06;100.00;102287.81;5132918;27;20051;-62
2021/04/08 00:30:05;;;;;;;17.60;3.05;;;;;;;0.11;100.00;102286.47;5132495;27;20219;-62
2021/04/08 00:32:30;;;;;;;15.25;3.28;;;;;;;0.24;98.07;102289.13;5132538;27;20058;-62
2021/04/08 00:34:56;;;;;;;18.10;3.15;;;;;;;0.24;97.84;102281.31;5133277;27;20095;-65
2021/04/08 00:37:21;;;;;;;17.80;3.63;;;;;;;0.15;99.75;102278.97;5132365;27;20046;-61
2021/04/08 00:39:48;;;;;;;21.73;3.65;;;;;;;0.12;100.00;102273.56;5133077;27;20054;-63
2021/04/08 00:42:13;;;;;;;17.50;3.60;;;;;;;0.01;100.00;102274.50;5132730;27;20417;-63
2021/04/08 00:44:38;;;;;;;20.55;3.80;;;;;;;-0.04;100.00;102270.69;5132086;27;20110;-63
2021/04/08 00:47:03;;;;;;;17.55;3.83;;;;;;;-0.08;100.00;102284.28;5132712;27;20052;-64
2021/04/08 00:49:29;;;;;;;15.85;3.50;;;;;;;-0.10;100.00;102278.97;5132585;27;20031;-64
2021/04/08 00:51:54;;;;;;;19.42;3.70;;;;;;;-0.10;100.00;102276.38;5132515;27;20027;-64
2021/04/08 00:54:20;;;;;;;16.25;3.55;;;;;;;-0.13;100.00;102278.75;5132754;27;20034;-64
2021/04/08 00:56:47;;;;;;;20.23;4.03;;;;;;;-0.11;99.35;102284.06;5132169;27;20026;-63
2021/04/08 00:59:13;;;;;;;19.33;3.63;;;;;;;-0.07;96.17;102284.38;5131619;27;20072;-63
2021/04/08 01:01:39;;;;;;;18.73;3.60;;;;;;;0.00;93.85;102280.53;5132595;27;20043;-63
2021/04/08 01:04:05;;;;;;;21.23;4.03;;;;;;;0.04;92.69;102277.31;5124088;27;20466;-63
2021/04/08 01:06:31;;;;;;;20.17;3.97;;;;;;;0.07;94.38;102282.72;5131109;27;20035;-63
2021/04/08 01:08:57;;;;;;;19.35;3.90;;;;;;;0.07;94.79;102282.72;5131164;27;20023;-63
2021/04/08 01:11:22;;;;;;;21.00;3.67;;;;;;;0.08;94.72;102281.06;5132327;27;20023;-63
2021/04/08 01:13:49;;;;;;;17.02;3.58;;;;;;;0.12;94.56;102280.47;5132908;27;20072;-63
2021/04/08 01:16:23;;;;;;;17.88;4.05;;;;;;;0.13;95.39;102282.25;5132897;27;20023;-63
2021/04/08 01:19:23;;;;;;;18.50;3.63;;;;;;;0.13;95.43;102284.84;5132097;27;20023;-63
2021/04/08 01:21:57;;;;;;;17.92;4.05;;;;;;;0.12;95.00;102278.75;5087318;28;20043;-63
2021/04/08 01:24:31;;;;;;;21.33;4.63;;;;;;;0.14;96.07;102281.47;5088883;28;20134;-63
2021/04/08 01:27:19;;;;;;;20.08;4.28;;;;;;;0.13;96.40;102290.06;5089241;28;20028;-63
2021/04/08 01:30:08;;;;;;;18.52;3.80;;;;;;;0.08;96.55;102291.44;5085965;28;20528;-62
2021/04/08 01:32:39;;;;;;;22.63;4.15;;;;;;;0.06;97.77;102286.16;5088905;28;20038;-63
2021/04/08 01:35:07;;;;;;;22.63;4.05;;;;;;;0.06;97.05;102283.53;5089118;28;20028;-64
2021/04/08 01:37:41;;;;;;;19.23;4.00;;;;;;;0.05;97.24;102301.66;5088817;28;20474;-63
2021/04/08 01:40:08;;;;;;;16.48;3.67;;;;;;;0.04;97.71;102289.44;5089170;28;20433;-63
2021/04/08 01:42:34;;;;;;;20.48;4.03;;;;;;;0.04;97.62;102292.03;5088162;28;20389;-63
2021/04/08 01:45:02;;;;;;;20.13;4.32;;;;;;;0.07;97.13;102290.53;5089005;28;20410;-63
2021/04/08 01:47:28;;;;;;;20.63;4.50;;;;;;;0.09;96.78;102293.25;5088722;28;20486;-63
2021/04/08 01:49:55;;;;;;;18.92;3.97;;;;;;;0.12;95.89;102291.75;5088694;28;20075;-63
2021/04/08 01:52:21;;;;;;;21.40;5.00;;;;;;;0.13;95.06;102285.78;5088374;28;20514;-62
2021/04/08 01:54:52;;;;;;;18.90;4.40;;;;;;;0.11;96.51;102274.34;5088207;28;20052;-63
2021/04/08 01:57:19;;;;;;;19.85;4.18;;;;;;;0.10;96.31;102276.84;5108282;28;20481;-64
2021/04/08 01:59:45;;;;;;;17.38;4.07;;;;;;;0.12;96.12;102288.28;5131395;28;20484;-62
2021/04/08 02:02:13;;;;;;;20.75;4.90;;;;;;;0.12;94.88;102278.75;5132343;28;20015;-63
2021/04/08 02:04:39;;;;;;;20.10;4.40;;;;;;;0.14;95.38;102277.16;5131389;28;20027;-62
2021/04/08 02:07:05;;;;;;;20.20;4.47;;;;;;;0.13;95.14;102279.66;5130184;28;20442;-62
2021/04/08 02:09:32;;;;;;;19.83;4.50;;;;;;;0.11;94.98;102281.25;5131285;27;20023;-61
2021/04/08 02:11:59;;;;;;;21.15;4.65;;;;;;;0.11;95.33;102289.06;5131533;28;20493;-63
2021/04/08 02:14:27;;;;;;;21.45;4.47;;;;;;;0.11;95.61;102292.56;5132135;28;20436;-62
2021/04/08 02:16:54;;;;;;;19.60;4.47;;;;;;;0.13;95.83;102303.06;5134221;27;20111;-62
2021/04/08 02:19:21;;;;;;;20.95;4.93;;;;;;;0.11;96.95;102302.06;5135434;27;20438;-62
2021/04/08 02:21:53;;;;;;;20.60;4.88;;;;;;;0.10;97.53;102300.25;5134774;27;20027;-61
2021/04/08 02:24:19;;;;;;;23.58;5.15;;;;;;;0.09;97.15;102309.75;5135586;27;20035;-62
2021/04/08 02:26:47;;;;;;;23.50;5.25;;;;;;;0.10;97.65;102300.25;5135106;27;20027;-62
2021/04/08 02:29:15;;;;;;;22.63;4.85;;;;;;;0.17;95.98;102302.50;5135520;27;20394;-62
2021/04/08 02:31:42;;;;;;;23.02;5.32;;;;;;;0.12;96.90;102296.97;5132908;27;20539;-62
2021/04/08 02:34:09;;;;;;;20.05;4.68;;;;;;;0.13;96.42;102300.47;5136311;27;20106;-62
2021/04/08 02:36:39;;;;;;;23.88;5.43;;;;;;;0.14;96.83;102304.88;5134381;27;20031;-62
2021/04/08 02:39:08;;;;;;;22.02;4.93;;;;;;;0.19;96.93;102306.13;5134639;27;20076;-62
2021/04/08 02:41:47;;;;;;;21.60;4.90;;;;;;;0.13;97.06;102301.38;5135159;27;20473;-62
2021/04/08 02:44:16;;;;;;;22.55;4.97;;;;;;;0.17;95.96;102290.41;5133688;27;20031;-62
2021/04/08 02:46:42;;;;;;;19.73;4.78;;;;;;;0.16;96.00;102274.66;5134869;27;20022;-63
2021/04/08 02:49:08;;;;;;;22.85;5.28;;;;;;;0.18;95.76;102278.28;5134264;27;20462;-62
2021/04/08 02:51:48;;;;;;;23.70;5.70;;;;;;;0.23;94.79;102282.09;5132783;27;20030;-62
2021/04/08 02:54:36;;;;;;;25.42;5.68;;;;;;;0.19;95.30;102280.09;5134130;27;20039;-62
2021/04/08 02:57:02;;;;;;;23.75;6.05;;;;;;;0.21;94.57;102283.69;5133340;27;20027;-62
2021/04/08 02:59:38;;;;;;;22.95;5.55;;;;;;;0.21;95.36;102280.22;5135237;27;20035;-62
2021/04/08 03:02:09;;;;;;;22.65;5.93;;;;;;;0.22;94.87;102280.31;5134347;27;20050;-62
2021/04/08 03:04:41;;;;;;;24.63;6.53;;;;;;;0.20;95.71;102292.28;5134677;27;20157;-63
2021/04/08 03:07:08;;;;;;;21.83;5.97;;;;;;;0.19;95.41;102286.97;5134584;27;20362;-62
2021/04/08 03:09:40;;;;;;;23.80;6.00;;;;;;;0.16;96.03;102277.25;5133939;27;20034;-62
2021/04/08 03:12:08;;;;;;;23.17;6.30;;;;;;;0.15;96.49;102280.69;5134226;27;20380;-62
2021/04/08 03:14:39;;;;;;;21.08;5.97;;;;;;;0.13;95.87;102285.78;5134405;27;20019;-62
2021/04/08 03:17:05;;;;;;;28.33;7.10;;;;;;;0.13;96.61;102283.19;5133508;27;20019;-62
2021/04/08 03:19:32;;;;;;;26.55;7.15;;;;;;;0.12;95.93;102281.38;5134695;27;20023;-62
2021/04/08 03:21:58;;;;;;;23.00;6.40;;;;;;;0.11;95.75;102276.94;5134344;27;20019;-63
2021/04/08 03:24:25;;;;;;;23.25;6.28;;;;;;;0.15;95.15;102285.88;5134309;27;20045;-62
2021/04/08 03:26:51;;;;;;;23.38;7.03;;;;;;;0.16;94.53;102279.88;5133491;27;20027;-62
2021/04/08 03:29:17;;;;;;;24.50;7.32;;;;;;;0.13;94.61;102277.06;5134130;27;20714;-62
2021/04/08 03:31:43;;;;;;;22.10;6.85;;;;;;;0.14;94.36;102281.47;5134060;27;20072;-62
2021/04/08 03:34:10;;;;;;;23.45;6.53;;;;;;;0.14;93.81;102281.47;5134405;27;20019;-63
2021/04/08 03:36:37;;;;;;;26.30;7.13;;;;;;;0.15;92.87;102280.69;5134517;27;20031;-62
2021/04/08 03:39:04;;;;;;;25.50;7.00;;;;;;;0.13;92.18;102280.56;5133082;27;20027;-62
2021/04/08 03:41:30;;;;;;;26.40;7.78;;;;;;;0.12;91.86;102283.06;5133031;27;20419;-62
2021/04/08 03:43:56;;;;;;;21.50;6.68;;;;;;;0.08;92.34;102275.84;5134028;27;20027;-61
2021/04/08 03:46:23;;;;;;;26.67;7.75;;;;;;;0.02;91.92;102270.22;5133880;27;20044;-62
2021/04/08 03:48:50;;;;;;;24.88;7.13;;;;;;;-0.02;91.95;102272.59;5133532;27;20031;-62
2021/04/08 03:51:19;;;;;;;22.90;6.75;;;;;;;-0.07;91.55;102273.97;5133924;27;20047;-62
2021/04/08 03:53:45;;;;;;;24.85;7.38;;;;;;;-0.10;91.69;102273.75;5131843;27;20035;-62
2021/04/08 03:56:13;;;;;;;25.95;7.03;;;;;;;-0.09;90.01;102269.47;5133049;27;20027;-63
2021/04/08 03:58:39;;;;;;;24.75;7.18;;;;;;;-0.16;90.32;102270.75;5133357;27;20462;-62
2021/04/08 04:01:05;;;;;;;23.00;7.00;;;;;;;-0.23;89.99;102273.69;5133419;27;20034;-62
2021/04/08 04:03:31;;;;;;;22.40;6.93;;;;;;;-0.29;89.98;102276.75;5133135;27;20038;-62
2021/04/08 04:05:57;;;;;;;24.65;7.00;;;;;;;-0.36;89.55;102271.91;5133920;27;20030;-62
2021/04/08 04:08:23;;;;;;;26.75;7.50;;;;;;;-0.38;89.72;102279.59;5132680;27;20063;-62
2021/04/08 04:10:48;;;;;;;23.35;7.03;;;;;;;-0.40;89.59;102268.19;5132591;27;20027;-62
2021/04/08 04:13:16;;;;;;;23.52;7.00;;;;;;;-0.40;90.08;102275.97;5133364;27;20204;-62
2021/04/08 04:15:46;;;;;;;23.08;6.45;;;;;;;-0.37;89.52;102276.19;5133568;27;20402;-62
2021/04/08 04:18:16;;;;;;;22.85;7.07;;;;;;;-0.33;88.91;102277.34;5133360;27;20463;-63
2021/04/08 04:20:41;;;;;;;24.20;7.22;;;;;;;-0.29;89.00;102273.22;5133738;27;20111;-64
2021/04/08 04:23:07;;;;;;;23.58;7.82;;;;;;;-0.28;89.07;102278.53;5131979;27;20167;-63
2021/04/08 04:25:33;;;;;;;25.20;7.90;;;;;;;-0.28;88.34;102277.66;5133400;27;20078;-64
2021/04/08 04:27:58;;;;;;;24.38;7.63;;;;;;;-0.27;88.91;102277.75;5133166;27;20113;-62
2021/04/08 04:30:24;;;;;;;23.70;7.07;;;;;;;-0.26;88.44;102276.03;5132886;27;20082;-63
2021/04/08 04:32:52;;;;;;;22.27;7.40;;;;;;;-0.24;87.71;102277.09;5132702;27;20023;-62
2021/04/08 04:35:18;;;;;;;26.00;7.60;;;;;;;-0.21;86.80;102274.69;5132171;27;20484;-62
2021/04/08 04:37:43;;;;;;;23.63;7.50;;;;;;;-0.15;86.67;102282.91;5131925;27;20031;-62
2021/04/08 04:40:09;;;;;;;28.08;7.82;;;;;;;-0.12;86.37;102283.13;5132524;27;20021;-63
2021/04/08 04:42:34;;;;;;;23.38;7.15;;;;;;;-0.11;86.37;102278.84;5132693;27;20035;-63
2021/04/08 04:45:01;;;;;;;24.33;7.10;;;;;;;-0.11;85.41;102282.34;5132965;27;20019;-63
2021/04/08 04:47:26;;;;;;;25.20;7.97;;;;;;;-0.10;85.36;102284.16;5132469;27;20027;-64
2021/04/08 04:49:51;;;;;;;26.73;7.85;;;;;;;-0.09;85.40;102280.75;5132222;27;20026;-62
2021/04/08 04:52:17;;;;;;;24.55;8.10;;;;;;;-0.12;84.80;102290.94;5132466;27;20118;-62
2021/04/08 04:54:42;;;;;;;25.00;7.88;;;;;;;-0.14;85.46;102283.84;5132991;27;20055;-62
2021/04/08 04:57:08;;;;;;;25.42;7.90;;;;;;;-0.18;84.99;102288.78;5131955;27;20031;-64
2021/04/08 04:59:33;;;;;;;23.52;8.13;;;;;;;-0.23;85.94;102289.28;5132540;27;20016;-64
2021/04/08 05:01:58;;;;;;;24.50;8.18;;;;;;;-0.31;85.10;102280.03;5132234;27;20016;-63
2021/04/08 05:04:23;;;;;;;24.75;8.35;;;;;;;-0.33;85.51;102292.03;5131311;27;20575;-64
2021/04/08 05:06:49;;;;;;;25.92;8.73;;;;;;;-0.40;85.75;102294.16;5132273;27;20023;-65
2021/04/08 05:09:14;;;;;;;25.27;9.30;;;;;;;-0.39;85.71;102302.88;5132628;27;20027;-63
2021/04/08 05:11:40;;;;;;;24.48;8.45;;;;;;;-0.36;84.73;102305.69;5132027;27;20115;-64
2021/04/08 05:14:05;;;;;;;26.23;9.27;;;;;;;-0.36;85.00;102303.09;5131989;27;20050;-64
2021/04/08 05:16:30;;;;;;;26.85;9.30;;;;;;;-0.36;84.58;102305.69;5132469;27;20106;-65
2021/04/08 05:18:56;;;;;;;26.38;9.55;;;;;;;-0.36;84.71;102304.00;5132075;27;20023;-64
2021/04/08 05:21:21;;;;;;;24.90;9.73;;;;;;;-0.34;84.07;102305.81;5132748;27;20034;-64
2021/04/08 05:23:46;;;;;;;24.15;9.73;;;;;;;-0.37;84.11;102302.19;5132094;28;20031;-64
2021/04/08 05:26:12;;;;;;;24.77;9.73;;;;;;;-0.42;84.10;102303.56;5132074;27;20449;-65
2021/04/08 05:28:37;;;;;;;27.58;9.60;;;;;;;-0.44;84.46;102305.13;5131847;28;20055;-66
2021/04/08 05:31:04;;;;;;;26.75;10.18;;;;;;;-0.43;84.16;102309.53;5132502;28;20114;-64
2021/04/08 05:33:29;;;;;;;26.13;9.80;;;;;;;-0.45;84.08;102300.75;5131701;27;20465;-68
2021/04/08 05:35:54;;;;;;;26.25;10.20;;;;;;;-0.40;83.51;102304.56;5131845;28;20049;-65
2021/04/08 05:38:20;;;;;;;26.10;10.25;;;;;;;-0.34;83.12;102308.41;5130800;27;20513;-64
2021/04/08 05:40:45;;;;;;;25.48;9.95;;;;;;;-0.29;82.34;102315.75;5130857;28;20076;-65
2021/04/08 05:43:10;;;;;;;24.05;9.55;;;;;;;-0.24;82.17;102313.47;5132135;28;20031;-65
2021/04/08 05:45:36;;;;;;;26.95;10.63;;;;;;;-0.24;81.97;102308.28;5130112;28;20107;-67
2021/04/08 05:48:01;;;;;;;26.10;10.82;;;;;;;-0.25;81.88;102307.38;5131897;27;20027;-67
2021/04/08 05:50:26;;;;;;;26.40;11.15;;;;;;;-0.25;81.96;102315.19;5131696;27;20615;-67
2021/04/08 05:52:52;;;;;;;27.48;11.00;;;;;;;-0.23;81.26;102310.09;5135513;27;20018;-66
2021/04/08 05:55:18;;;;;;;26.45;10.93;;;;;;;-0.18;81.64;102308.69;5135390;27;20019;-67
2021/04/08 05:57:43;;;;;;;26.52;10.68;;;;;;;-0.11;80.74;102316.16;5136114;27;20389;-63
2021/04/08 06:00:11;;;;;;;25.60;10.50;;;;;;;-0.05;80.63;102320.88;5134333;27;20410;-63
2021/04/08 06:02:37;;;;;;;26.55;10.60;;;;;;;-0.06;80.29;102313.88;5135792;27;20110;-63
2021/04/08 06:05:05;;;;;;;28.02;11.52;;;;;;;-0.08;79.79;102325.88;5134541;27;20152;-64
2021/04/08 06:07:31;;;;;;;26.08;11.75;;;;;;;-0.09;80.00;102324.94;5134666;27;20027;-62
2021/04/08 06:09:56;;;;;;;28.10;11.35;;;;;;;-0.07;80.27;102325.97;5135853;27;20023;-64
2021/04/08 06:12:21;;;;;;;25.65;11.10;;;;;;;-0.05;80.82;102326.97;5134230;27;20106;-64
2021/04/08 06:14:48;;;;;;;26.45;11.07;;;;;;;-0.03;79.53;102320.22;5135585;27;20028;-63
2021/04/08 06:17:14;;;;;;;26.90;11.70;;;;;;;0.05;79.68;102325.03;5135343;27;20031;-64
2021/04/08 06:19:39;;;;;;;29.88;11.98;;;;;;;0.06;78.69;102326.81;5134919;27;20381;-63
2021/04/08 06:22:04;;;;;;;26.35;11.15;;;;;;;0.06;78.29;102330.34;5133674;27;20015;-63
2021/04/08 06:24:30;;;;;;;25.52;10.82;;;;;;;0.09;78.09;102327.97;5135205;27;20038;-62
2021/04/08 06:26:55;;;;;;;27.00;11.50;;;;;;;0.19;77.18;102323.41;5135010;27;20020;-65
2021/04/08 06:29:21;;;;;;;24.80;11.63;;;;;;;0.24;77.63;102324.63;5134974;27;20474;-63
2021/04/08 06:31:47;;;;;;;26.67;11.95;;;;;;;0.33;76.74;102325.28;5134550;27;20034;-63
2021/04/08 06:34:12;;;;;;;27.25;11.82;;;;;;;0.51;76.13;102333.44;5135120;27;20019;-63
2021/04/08 06:36:37;;;;;;;27.08;11.55;;;;;;;0.64;74.51;102330.91;5134941;27;20026;-63
2021/04/08 06:39:04;;;;;;;26.50;11.73;;;;;;;0.83;75.35;102337.34;5135101;27;20054;-63
2021/04/08 06:41:30;;;;;;;27.83;11.32;;;;;;;1.07;73.79;102345.03;5135159;27;20373;-63
2021/04/08 06:43:58;;;;;;;27.60;11.25;;;;;;;1.31;72.81;102336.22;5134498;27;20491;-64
2021/04/08 06:46:24;;;;;;;29.15;11.45;;;;;;;1.55;70.61;102341.22;5135180;27;20031;-63
2021/04/08 06:48:55;;;;;;;27.75;11.90;;;;;;;1.85;72.15;102341.38;5134488;27;20019;-63
2021/04/08 06:51:21;;;;;;;25.63;11.32;;;;;;;2.11;70.17;102336.94;5134495;27;20022;-64
2021/04/08 06:53:48;;;;;;;26.38;11.02;;;;;;;2.24;70.25;102345.63;5133288;27;20019;-64
2021/04/08 06:56:14;;;;;;;25.77;10.10;;;;;;;2.28;66.55;102338.88;5133661;27;20500;-64
2021/04/08 06:58:40;;;;;;;26.30;10.60;;;;;;;2.30;67.19;102345.13;5133604;27;20034;-65
2021/04/08 07:01:10;;;;;;;25.92;9.73;;;;;;;2.34;67.55;102336.63;5135016;27;20885;-63
2021/04/08 07:03:36;;;;;;;24.35;10.25;;;;;;;2.37;67.19;102344.66;5134035;27;20020;-64
2021/04/08 07:06:03;;;;;;;27.00;10.85;;;;;;;2.39;64.88;102347.38;5134444;27;20020;-64
2021/04/08 07:08:30;;;;;;;25.95;10.50;;;;;;;2.40;65.54;102352.69;5134112;27;20034;-67
2021/04/08 07:10:56;;;;;;;27.70;10.57;;;;;;;2.42;66.72;102356.28;5133770;27;20533;-64
2021/04/08 07:13:21;;;;;;;25.13;9.82;;;;;;;2.44;65.66;102354.66;5134651;27;20032;-64
2021/04/08 07:15:47;;;;;;;25.50;10.70;;;;;;;2.46;66.60;102351.25;5132970;27;20037;-65
2021/04/08 07:18:14;;;;;;;23.73;10.10;;;;;;;2.51;65.59;102357.69;5131855;27;20035;-66
2021/04/08 07:20:39;;;;;;;25.83;10.60;;;;;;;2.49;64.00;102361.88;5133934;27;20061;-66
2021/04/08 07:23:09;;;;;;;27.10;11.43;;;;;;;2.54;66.42;102357.88;5133449;27;20142;-65
2021/04/08 07:25:35;;;;;;;26.42;10.80;;;;;;;2.61;66.32;102360.03;5129799;27;20435;-64
2021/04/08 07:28:00;;;;;;;25.52;11.15;;;;;;;2.67;64.89;102364.75;5133624;27;20020;-64
2021/04/08 07:30:26;;;;;;;26.13;11.23;;;;;;;2.69;64.81;102360.50;5133935;27;20051;-64
2021/04/08 07:32:59;;;;;;;26.63;11.45;;;;;;;2.69;64.47;102358.78;5134334;27;20034;-64
2021/04/08 07:35:39;;;;;;;27.10;11.65;;;;;;;2.78;65.38;102356.75;5132472;27;20101;-64
2021/04/08 07:38:04;;;;;;;26.52;11.55;;;;;;;2.81;63.47;102363.88;5127713;27;20039;-65
2021/04/08 07:40:30;;;;;;;24.88;10.68;;;;;;;2.85;63.89;102365.81;5134252;27;20033;-66
2021/04/08 07:42:55;;;;;;;26.58;11.77;;;;;;;2.93;64.62;102358.47;5133850;27;20035;-65
2021/04/08 07:45:35;;;;;;;26.45;11.65;;;;;;;3.05;64.63;102363.53;5133779;27;20035;-66
2021/04/08 07:48:01;;;;;;;26.23;11.45;;;;;;;3.12;62.33;102363.06;5132533;27;20027;-65
2021/04/08 07:50:27;;;;;;;28.10;10.90;;;;;;;3.10;62.95;102363.00;5133449;27;20033;-66
2021/04/08 07:52:53;;;;;;;25.88;10.98;;;;;;;3.21;62.68;102360.09;5133792;27;20533;-65
2021/04/08 07:55:29;;;;;;;26.90;10.98;;;;;;;3.28;60.87;102368.38;5133422;27;20401;-64
2021/04/08 07:58:02;;;;;;;24.80;10.63;;;;;;;3.33;62.00;102365.13;5132007;27;20493;-63
2021/04/08 08:00:47;;;;;;;24.58;10.32;;;;;;;3.41;61.84;102362.16;5131941;27;20477;-63
2021/04/08 08:03:28;;;;;;;24.88;10.65;;;;;;;3.60;60.78;102363.22;5067430;28;20407;-63
2021/04/08 08:05:59;;;;;;;23.60;9.25;;;;;;;3.60;57.40;102355.38;5069721;28;20064;-63
2021/04/08 08:08:35;;;;;;;23.98;10.43;;;;;;;3.64;60.27;102362.56;5069618;28;20053;-63
2021/04/08 08:11:07;;;;;;;23.38;10.18;;;;;;;3.78;58.04;102366.84;5069342;28;20390;-63
2021/04/08 08:13:48;;;;;;;24.77;9.93;;;;;;;3.91;59.51;102363.22;5068688;28;20032;-65
2021/04/08 08:16:18;;;;;;;24.85;10.43;;;;;;;4.04;58.14;102363.91;5068994;28;20372;-63
2021/04/08 08:18:45;;;;;;;23.80;9.95;;;;;;;4.13;58.11;102360.06;5069241;28;20029;-63
2021/04/08 08:21:13;;;;;;;25.00;10.00;;;;;;;4.24;56.88;102362.38;5069947;28;20029;-63
2021/04/08 08:23:43;;;;;;;25.52;10.30;;;;;;;4.30;57.25;102367.97;5069799;28;20115;-63
2021/04/08 08:26:41;;;;;;;25.08;9.82;;;;;;;4.42;55.81;102368.59;5067198;28;20039;-63
2021/04/08 08:29:06;;;;;;;24.02;9.73;;;;;;;4.45;55.33;102368.75;5067690;28;20132;-63
2021/04/08 08:31:37;;;;;;;22.98;9.93;;;;;;;4.47;56.53;102377.63;5069189;28;20115;-63
2021/04/08 08:34:07;;;;;;;23.48;9.82;;;;;;;4.65;54.80;102369.84;5068616;28;20522;-64
2021/04/08 08:36:33;;;;;;;24.55;10.13;;;;;;;4.84;55.52;102374.31;5069274;28;20047;-63
2021/04/08 08:39:01;;;;;;;25.73;9.90;;;;;;;4.99;53.03;102370.69;5069407;28;20024;-63
2021/04/08 08:41:30;;;;;;;22.83;9.15;;;;;;;5.19;52.76;102367.38;5128674;27;20035;-63
2021/04/08 08:43:56;;;;;;;22.48;9.63;;;;;;;5.34;52.45;102374.19;5132161;27;20376;-63
2021/04/08 08:46:26;;;;;;;21.38;8.23;;;;;;;5.47;51.30;102376.59;5132743;27;20070;-64
2021/04/08 08:48:52;;;;;;;22.95;9.55;;;;;;;5.46;52.21;102372.22;5132744;27;20050;-64
2021/04/08 08:51:18;;;;;;;24.45;9.52;;;;;;;5.49;50.17;102367.13;5132249;27;20042;-66
2021/04/08 08:53:44;;;;;;;25.15;8.88;;;;;;;5.65;50.04;102366.16;5129851;27;20079;-65
2021/04/08 08:56:10;;;;;;;23.92;9.45;;;;;;;5.73;50.08;102366.50;5129518;27;20016;-64
2021/04/08 08:58:37;;;;;;;23.30;8.73;;;;;;;5.76;47.95;102366.66;5129230;27;20023;-66
2021/04/08 09:01:02;;;;;;;22.45;9.18;;;;;;;5.76;47.83;102366.66;5131408;27;20051;-64
2021/04/08 09:03:28;;;;;;;22.52;7.80;;;;;;;5.69;46.37;102375.03;5128563;27;20059;-64
2021/04/08 09:05:54;;;;;;;22.05;7.35;;;;;;;5.75;45.76;102355.25;5128001;27;20465;-64
2021/04/08 09:08:25;;;;;;;22.67;7.90;;;;;;;5.78;45.75;102359.72;5124910;27;20023;-68
2021/04/08 09:10:51;;;;;;;23.10;7.90;;;;;;;5.91;45.49;102362.16;5123362;27;20438;-66
2021/04/08 09:13:18;;;;;;;21.10;6.93;;;;;;;5.97;44.79;102363.25;5129718;27;20045;-68
2021/04/08 09:15:44;;;;;;;21.13;7.88;;;;;;;5.86;45.93;102366.25;5124530;27;20027;-70
2021/04/08 09:18:09;;;;;;;22.00;7.30;;;;;;;5.88;44.25;102355.84;5127913;27;20031;-64
2021/04/08 09:20:36;;;;;;;21.73;7.15;;;;;;;5.91;45.00;102354.28;5130861;27;20080;-64
2021/04/08 09:23:08;;;;;;;21.75;8.23;;;;;;;6.13;46.03;102346.53;5127495;27;20022;-65
2021/04/08 09:25:36;;;;;;;19.98;7.40;;;;;;;6.23;41.55;102364.50;5133248;27;20015;-68
2021/04/08 09:28:08;;;;;;;21.08;7.85;;;;;;;6.16;41.99;102358.09;5133857;27;20023;-65
2021/04/08 09:31:19;;;;;;;21.67;7.93;;;;;;;6.37;42.31;102355.53;5130022;27;20552;-67
2021/04/08 09:33:40;;;;;;;21.45;8.43;;;;;;;6.37;42.74;102354.66;5136605;27;20057;-64
2021/04/08 09:36:18;;;;;;;22.40;8.15;;;;;;;6.34;43.13;102360.66;5136502;27;20492;-66
2021/04/08 09:38:43;;;;;;;23.13;8.25;;;;;;;6.26;42.44;102355.06;5136269;27;20026;-65
2021/04/08 09:41:09;;;;;;;21.60;8.57;;;;;;;6.22;42.97;102353.09;5139054;27;20654;-67
2021/04/08 09:43:37;;;;;;;23.05;8.32;;;;;;;6.34;41.58;102346.63;5135858;27;20039;-66
2021/04/08 09:46:07;;;;;;;21.73;8.52;;;;;;;6.48;43.31;102344.63;5137410;27;20055;-67
2021/04/08 09:49:01;;;;;;;22.83;8.38;;;;;;;6.77;42.42;102346.81;5136880;27;20031;-66
2021/04/08 09:51:35;;;;;;;23.13;9.57;;;;;;;6.50;42.35;102346.47;5093893;28;20090;-66
2021/04/08 09:54:03;;;;;;;22.77;9.27;;;;;;;6.62;43.12;102341.75;5094426;28;20024;-66
2021/04/08 09:56:53;;;;;;;22.83;8.90;;;;;;;6.86;43.69;102342.78;5094021;28;20032;-65
2021/04/08 09:59:19;;;;;;;22.10;8.63;;;;;;;6.75;39.52;102329.19;5095109;28;20028;-64
2021/04/08 10:01:45;;;;;;;21.60;8.30;;;;;;;6.76;38.95;102342.38;5095641;28;20082;-64
2021/04/08 10:04:19;;;;;;;21.98;8.75;;;;;;;6.81;40.43;102342.59;5094628;28;20133;-64
2021/04/08 10:06:45;;;;;;;24.05;9.40;;;;;;;6.73;38.64;102342.25;5095086;28;20585;-63
2021/04/08 10:09:13;;;;;;;24.00;10.50;;;;;;;6.63;39.50;102334.81;5094851;28;20112;-63
2021/04/08 10:11:39;;;;;;;23.75;8.95;;;;;;;6.71;39.65;102332.50;5095542;28;20043;-64
2021/04/08 10:14:21;;;;;;;23.38;9.52;;;;;;;6.90;41.44;102324.59;5094974;28;20035;-63
2021/04/08 10:17:10;;;;;;;24.55;10.48;;;;;;;7.07;40.90;102327.91;5094648;28;20075;-65
2021/04/08 10:19:41;;;;;;;24.95;10.52;;;;;;;7.07;40.53;102335.81;5094206;28;20043;-66
2021/04/08 10:22:09;;;;;;;22.15;9.25;;;;;;;7.17;37.91;102329.22;5095067;28;20032;-63
2021/04/08 10:24:41;;;;;;;20.83;7.80;;;;;;;7.17;39.70;102326.59;5095130;28;20032;-63
2021/04/08 10:27:19;;;;;;;25.77;10.90;;;;;;;7.08;39.91;102323.59;5103739;27;20035;-63
2021/04/08 10:29:46;;;;;;;23.98;10.38;;;;;;;7.29;39.19;102315.69;5133264;27;20100;-66
2021/04/08 10:32:12;;;;;;;24.00;10.30;;;;;;;7.27;39.77;102318.25;5134634;27;20027;-67
2021/04/08 10:34:40;;;;;;;25.23;10.30;;;;;;;7.08;39.29;102318.31;5136073;27;20039;-66
2021/04/08 10:37:07;;;;;;;23.70;10.80;;;;;;;6.89;41.48;102312.28;5132999;27;20427;-66
2021/04/08 10:39:35;;;;;;;25.42;11.30;;;;;;;7.07;39.77;102311.25;5127230;27;20483;-68
2021/04/08 10:42:12;;;;;;;26.17;12.10;;;;;;;6.86;39.87;102306.88;5128154;27;20028;-68
2021/04/08 10:44:46;;;;;;;25.30;10.80;;;;;;;6.96;40.45;102309.06;5132256;27;20114;-67
2021/04/08 10:47:15;;;;;;;25.40;11.65;;;;;;;7.00;40.99;102311.84;5123280;27;20393;-67
2021/04/08 10:49:43;;;;;;;24.92;11.18;;;;;;;6.81;39.12;102316.28;5130543;27;20023;-67
2021/04/08 10:52:12;;;;;;;25.52;11.23;;;;;;;6.84;38.79;102313.78;5134889;27;20019;-66
2021/04/08 10:54:40;;;;;;;23.92;11.13;;;;;;;7.12;40.52;102314.97;5134983;27;20023;-67
2021/04/08 10:57:07;;;;;;;24.60;12.02;;;;;;;7.36;39.76;102314.22;5134589;27;20023;-68
2021/04/08 10:59:33;;;;;;;25.77;11.88;;;;;;;7.25;39.30;102303.22;5134204;27;20080;-65
2021/04/08 11:02:00;;;;;;;25.52;12.55;;;;;;;7.27;39.89;102310.34;5135263;27;20023;-69
2021/04/08 11:04:26;;;;;;;25.58;11.25;;;;;;;7.44;41.40;102310.13;5134731;27;20041;-68
2021/04/08 11:06:56;;;;;;;24.65;12.05;;;;;;;7.24;39.08;102304.97;5134672;27;20023;-68
2021/04/08 11:09:26;;;;;;;23.50;10.27;;;;;;;6.77;39.79;102306.47;5126781;27;20024;-66
2021/04/08 11:11:52;;;;;;;24.73;11.57;;;;;;;6.63;41.77;102304.16;5133752;27;20066;-67
2021/04/08 11:14:22;;;;;;;24.08;11.50;;;;;;;6.65;41.21;102300.69;5134459;27;20027;-66
2021/04/08 11:16:48;;;;;;;24.30;11.23;;;;;;;6.88;40.00;102293.81;5134488;27;20465;-67
2021/04/08 11:19:14;;;;;;;25.10;11.40;;;;;;;6.94;41.64;102294.94;5133987;27;20019;-66
2021/04/08 11:21:39;;;;;;;25.35;12.75;;;;;;;6.94;39.39;102297.56;5134474;27;20071;-69
2021/04/08 11:24:05;;;;;;;23.95;12.07;;;;;;;6.88;38.57;102294.69;5133736;27;20055;-66